Aérodrome :
LOGIN :

S'inscrire | Disclaimer

   EN    FR    IT 

 










Légende :    VFR   VFR Marginal   IFR   IFR Intensif   IFR Très Intensif
Visi : 
Plafond : 
>= 8 km
>= 3000ft
5 à 8 km
1000 à 3000 ft
1500m à 5 km
500 à 1000 ft
800 à 1500m
200 à 500 ft
< 800m
< 200 ft
Symboles :   Orages  Brouillard  Fortes neiges  Fortes précipitations  Vent > 20 kt
SIGMETs :   Divers  Orages  Givrage  Turbulence  Onde Orograph.  Cendres Volcan.






- Altitude de l'aérodrome : 42 ft
- Code IATA : LMO


EGQS - Lossiemouth

DERNIER METAR :
  • 212050Z 11007KT 9999 FEW035 SCT050 BKN200 06/04 Q1006 RMK BLU

METARs EXPIRÉS :
  • 211950Z 10007KT 9999 FEW024 SCT030 BKN040 07/05 Q1006 RMK BLU
  • 211850Z 09006KT 9999 FEW018 SCT025 BKN045 07/05 Q1006 RMK BLU

TAF TAF EGQS
Valide du 21 à 21h jusqu'au 22 à 15h UTC


211921Z 2121/2215 10012KT 9999 FEW020 SCT030
TEMPO 2121/2215 -SHRA SCT018
PROB30
TEMPO 2206/2215 4000 SHRA SCT012 BKN018



MET'MAP, la Météo Aéronautique d'un coup d'oeil ! - Copyright ORBIFLY Décembre 2007 - Disclaimer

ORBIFLY MET'MAP TEAM :

Programmation & Développement : Alexandra Zaïnal
Conception & Développement : Baudouin d'Aumeries
Co-Programmation & Développement : Marc-Olivier Méhu
Soutien technique & logistique : Manuel Goepfert

Contact : metmap@orbifly.com




SOURCES & CREDITS :

   NOAA